createdAt,value
2022-10-31T00:01:42.613Z,19.30
2022-10-31T00:04:11.945Z,19.73
2022-10-31T00:06:41.190Z,19.42
2022-10-31T00:09:12.555Z,19.48
2022-10-31T00:11:41.855Z,19.12
2022-10-31T00:14:11.395Z,20.00
2022-10-31T00:16:41.782Z,24.75
2022-10-31T00:19:11.192Z,22.40
2022-10-31T00:21:40.499Z,23.50
2022-10-31T00:24:10.056Z,23.15
2022-10-31T00:26:39.269Z,23.90
2022-10-31T00:29:08.689Z,27.65
2022-10-31T00:31:38.884Z,23.12
2022-10-31T00:34:08.302Z,24.75
2022-10-31T00:36:37.888Z,23.50
2022-10-31T00:39:07.122Z,25.75
2022-10-31T00:41:36.330Z,28.05
2022-10-31T00:44:07.368Z,28.85
2022-10-31T00:46:36.722Z,24.37
2022-10-31T00:49:06.095Z,22.42
2022-10-31T00:51:35.501Z,26.87
2022-10-31T00:54:04.803Z,25.27
2022-10-31T00:56:34.051Z,24.30
2022-10-31T00:59:03.579Z,29.12
2022-10-31T01:01:33.080Z,26.12
2022-10-31T01:04:03.268Z,31.68
2022-10-31T01:06:34.265Z,28.70
2022-10-31T01:09:03.570Z,26.25
2022-10-31T01:11:33.097Z,29.07
2022-10-31T01:14:04.075Z,27.40
2022-10-31T01:16:34.282Z,28.42
2022-10-31T01:19:03.635Z,26.55
2022-10-31T01:21:32.892Z,26.27
2022-10-31T01:24:05.295Z,29.02
2022-10-31T01:26:35.247Z,29.75
2022-10-31T01:29:09.343Z,28.05
2022-10-31T01:31:40.570Z,32.17
2022-10-31T01:34:10.182Z,30.32
2022-10-31T01:36:40.008Z,31.33
2022-10-31T01:39:12.543Z,31.35
2022-10-31T01:41:44.702Z,31.45
2022-10-31T01:44:20.100Z,34.00
2022-10-31T01:46:58.532Z,35.00
2022-10-31T01:49:45.905Z,35.60
2022-10-31T01:52:33.043Z,36.45
2022-10-31T01:55:07.451Z,30.82
2022-10-31T01:57:37.924Z,33.50
2022-10-31T02:00:09.999Z,38.35
2022-10-31T02:02:45.051Z,38.70
2022-10-31T02:05:17.081Z,35.38
2022-10-31T02:07:49.468Z,35.47
2022-10-31T02:10:19.167Z,28.92
2022-10-31T02:12:48.515Z,30.37
2022-10-31T02:15:18.033Z,40.05
2022-10-31T02:17:48.386Z,36.25
2022-10-31T02:20:20.305Z,34.13
2022-10-31T02:23:13.322Z,35.52
2022-10-31T02:26:18.051Z,34.23
2022-10-31T02:29:07.167Z,40.67
2022-10-31T02:31:54.449Z,42.13
2022-10-31T02:34:33.092Z,44.10
2022-10-31T02:37:14.668Z,42.13
2022-10-31T02:40:10.988Z,39.45
2022-10-31T02:43:03.824Z,45.98
2022-10-31T02:45:36.660Z,46.48
2022-10-31T02:50:39.135Z,40.20
2022-10-31T02:53:08.615Z,46.08
2022-10-31T02:55:41.254Z,42.73
2022-10-31T02:58:16.570Z,43.35
2022-10-31T03:01:11.836Z,43.58
2022-10-31T03:03:47.271Z,42.15
2022-10-31T03:06:36.303Z,44.20
2022-10-31T03:09:26.896Z,43.78
2022-10-31T03:12:17.058Z,47.78
2022-10-31T03:14:52.157Z,50.70
2022-10-31T03:17:24.687Z,46.35
2022-10-31T03:22:25.873Z,28.05
2022-10-31T03:24:56.156Z,22.67
2022-10-31T03:27:27.825Z,31.23
2022-10-31T03:29:59.657Z,32.17
2022-10-31T03:32:36.767Z,36.48
2022-10-31T03:35:08.124Z,36.38
2022-10-31T03:37:38.510Z,39.08
2022-10-31T03:40:10.983Z,34.45
2022-10-31T03:42:43.355Z,42.05
2022-10-31T03:45:17.825Z,43.13
2022-10-31T03:47:47.128Z,41.53
2022-10-31T03:50:18.308Z,36.38
2022-10-31T03:53:03.389Z,40.92
2022-10-31T03:55:35.802Z,42.03
2022-10-31T03:58:10.776Z,43.40
2022-10-31T04:00:42.406Z,40.43
2022-10-31T04:03:21.082Z,45.65
2022-10-31T04:05:53.198Z,40.43
2022-10-31T04:08:25.570Z,44.23
2022-10-31T04:10:56.383Z,43.08
2022-10-31T04:13:31.163Z,49.10
2022-10-31T04:16:02.130Z,44.38
2022-10-31T04:18:31.483Z,44.90
2022-10-31T04:21:06.107Z,46.92
2022-10-31T04:23:36.800Z,45.58
2022-10-31T04:26:07.809Z,46.85
2022-10-31T04:28:37.437Z,51.83
2022-10-31T04:31:07.891Z,49.88
2022-10-31T04:33:38.999Z,50.83
2022-10-31T04:36:08.869Z,48.50
2022-10-31T04:38:38.418Z,41.35
2022-10-31T04:41:09.330Z,43.73
2022-10-31T04:43:46.239Z,45.75
2022-10-31T04:46:15.707Z,48.65
2022-10-31T04:48:45.471Z,46.85
2022-10-31T04:51:14.949Z,49.75
2022-10-31T04:53:44.903Z,47.20
2022-10-31T04:56:34.158Z,49.53
2022-10-31T04:59:05.116Z,53.68
2022-10-31T05:01:36.241Z,51.28
2022-10-31T05:04:05.973Z,55.30
2022-10-31T05:06:35.263Z,54.10
2022-10-31T05:09:05.073Z,48.45
2022-10-31T05:11:34.336Z,51.85
2022-10-31T05:14:05.457Z,57.67
2022-10-31T05:16:36.533Z,52.70
2022-10-31T05:19:26.253Z,53.10
2022-10-31T05:22:00.304Z,55.30
2022-10-31T05:24:31.265Z,51.08
2022-10-31T05:27:00.677Z,54.48
2022-10-31T05:29:31.571Z,59.65
2022-10-31T05:32:01.365Z,56.05
2022-10-31T05:34:35.090Z,54.77
2022-10-31T05:37:09.152Z,54.93
2022-10-31T05:39:39.624Z,57.75
2022-10-31T05:42:10.575Z,55.30
2022-10-31T05:44:39.838Z,60.40
2022-10-31T05:47:16.958Z,70.08
2022-10-31T05:50:00.269Z,75.17
2022-10-31T05:52:51.464Z,73.15
2022-10-31T05:55:22.395Z,68.72
2022-10-31T05:57:53.993Z,66.28
2022-10-31T06:00:24.011Z,73.00
2022-10-31T06:03:01.744Z,76.90
2022-10-31T06:05:54.951Z,76.25
2022-10-31T06:08:22.609Z,75.45
2022-10-31T06:10:54.024Z,66.20
2022-10-31T06:15:57.054Z,70.55
2022-10-31T06:18:27.955Z,75.52
2022-10-31T06:20:57.234Z,69.15
2022-10-31T06:23:26.898Z,71.22
2022-10-31T06:25:57.950Z,71.55
2022-10-31T06:28:27.503Z,73.92
2022-10-31T06:30:58.511Z,71.82
2022-10-31T06:33:28.165Z,65.62
2022-10-31T06:35:59.267Z,74.65
2022-10-31T06:38:29.435Z,67.97
2022-10-31T06:40:59.288Z,67.47
2022-10-31T06:43:29.624Z,67.25
2022-10-31T06:46:05.497Z,63.33
2022-10-31T06:48:36.581Z,66.42
2022-10-31T06:51:07.536Z,61.02
2022-10-31T06:53:36.769Z,57.15
2022-10-31T06:56:06.982Z,57.48
2022-10-31T06:58:37.995Z,56.37
2022-10-31T07:01:08.948Z,60.45
2022-10-31T07:03:38.297Z,63.85
2022-10-31T07:06:07.972Z,60.48
2022-10-31T07:08:37.366Z,60.08
2022-10-31T07:11:06.940Z,56.65
2022-10-31T07:13:36.559Z,54.80
2022-10-31T07:16:08.966Z,56.33
2022-10-31T07:18:38.624Z,51.73
2022-10-31T07:21:09.678Z,44.05
2022-10-31T07:23:38.999Z,48.28
2022-10-31T07:26:27.150Z,44.85
2022-10-31T07:28:56.540Z,46.33
2022-10-31T07:31:26.838Z,42.35
2022-10-31T07:33:57.803Z,40.30
2022-10-31T07:36:31.488Z,40.45
2022-10-31T07:39:03.310Z,35.48
2022-10-31T07:41:34.449Z,33.05
2022-10-31T07:44:04.785Z,31.70
2022-10-31T07:46:38.794Z,36.77
2022-10-31T07:49:12.824Z,33.20
2022-10-31T07:52:00.232Z,42.55
2022-10-31T07:54:47.379Z,41.50
2022-10-31T07:57:21.467Z,42.03
2022-10-31T07:59:49.511Z,40.95
2022-10-31T08:02:19.505Z,40.75
2022-10-31T08:04:57.185Z,42.85
2022-10-31T08:07:43.440Z,42.53
2022-10-31T08:10:14.430Z,46.50
2022-10-31T08:12:43.845Z,42.15
2022-10-31T08:15:13.385Z,43.23
2022-10-31T08:17:42.669Z,40.50
2022-10-31T08:20:12.681Z,40.25
2022-10-31T08:22:44.053Z,37.88
2022-10-31T08:25:14.036Z,38.65
2022-10-31T08:27:44.861Z,41.05
2022-10-31T08:30:16.082Z,38.15
2022-10-31T08:32:47.312Z,43.98
2022-10-31T08:35:35.156Z,43.13
2022-10-31T08:38:21.319Z,43.48
2022-10-31T08:40:51.809Z,40.52
2022-10-31T08:43:22.338Z,42.78
2022-10-31T08:45:54.115Z,43.35
2022-10-31T08:50:55.819Z,41.45
2022-10-31T08:53:26.473Z,45.38
2022-10-31T08:55:58.453Z,45.65
2022-10-31T08:58:28.313Z,43.50
2022-10-31T09:01:01.294Z,40.25
2022-10-31T09:03:32.861Z,41.45
2022-10-31T09:06:04.336Z,43.92
2022-10-31T09:08:34.561Z,42.10
2022-10-31T09:11:04.382Z,44.70
2022-10-31T09:13:51.641Z,43.02
2022-10-31T09:16:37.489Z,39.48
2022-10-31T09:19:11.453Z,38.20
2022-10-31T09:21:38.898Z,38.23
2022-10-31T09:24:08.823Z,36.83
2022-10-31T09:26:38.222Z,39.03
2022-10-31T09:29:10.501Z,35.58
2022-10-31T09:31:44.953Z,37.33
2022-10-31T09:34:28.823Z,32.78
2022-10-31T09:36:59.936Z,32.65
2022-10-31T09:39:29.852Z,34.45
2022-10-31T09:42:24.751Z,32.23
2022-10-31T09:45:10.976Z,32.13
2022-10-31T09:47:58.579Z,28.45
2022-10-31T09:50:50.759Z,31.50
2022-10-31T09:53:50.512Z,29.67
2022-10-31T09:56:23.176Z,34.83
2022-10-31T09:58:56.627Z,29.90
2022-10-31T10:01:32.245Z,28.12
2022-10-31T10:04:04.871Z,36.42
2022-10-31T10:06:47.148Z,35.58
2022-10-31T10:09:33.167Z,31.02
2022-10-31T10:12:26.909Z,35.05
2022-10-31T10:15:19.767Z,33.08
2022-10-31T10:18:01.873Z,34.95
2022-10-31T10:20:53.233Z,35.25
2022-10-31T10:23:34.822Z,35.05
2022-10-31T10:26:11.360Z,37.90
2022-10-31T10:28:43.774Z,38.55
2022-10-31T10:31:19.414Z,39.50
2022-10-31T10:34:17.709Z,50.15
2022-10-31T10:36:55.986Z,44.77
2022-10-31T10:39:31.843Z,38.67
2022-10-31T10:42:19.855Z,42.50
2022-10-31T10:45:08.698Z,44.73
2022-10-31T10:47:43.910Z,43.60
2022-10-31T10:50:19.152Z,44.42
2022-10-31T10:52:51.537Z,46.33
2022-10-31T10:55:30.122Z,50.65
2022-10-31T10:58:10.101Z,48.35
2022-10-31T11:00:51.068Z,51.35
2022-10-31T11:03:20.585Z,52.03
2022-10-31T11:06:02.229Z,52.17
2022-10-31T11:08:36.694Z,56.18
2022-10-31T11:11:21.394Z,57.13
2022-10-31T11:13:52.058Z,61.25
2022-10-31T11:16:43.149Z,60.88
2022-10-31T11:19:18.640Z,60.08
2022-10-31T11:21:53.940Z,62.10
2022-10-31T11:24:22.269Z,65.20
2022-10-31T11:27:00.024Z,70.87
2022-10-31T11:29:29.369Z,67.47
2022-10-31T11:32:01.008Z,64.85
2022-10-31T11:34:42.513Z,68.20
2022-10-31T11:37:18.223Z,69.30
2022-10-31T11:39:52.273Z,67.10
2022-10-31T11:42:24.216Z,74.07
2022-10-31T11:44:55.686Z,69.92
2022-10-31T11:47:30.665Z,66.72
2022-10-31T11:50:03.345Z,70.12
2022-10-31T11:55:05.096Z,71.22
2022-10-31T12:00:06.077Z,68.17
2022-10-31T12:02:40.684Z,65.65
2022-10-31T12:05:26.057Z,63.13
2022-10-31T12:07:59.243Z,68.40
2022-10-31T12:10:29.574Z,67.00
2022-10-31T12:15:37.656Z,63.98
2022-10-31T12:18:26.592Z,59.63
2022-10-31T12:21:01.902Z,63.68
2022-10-31T12:23:34.301Z,65.47
2022-10-31T12:26:09.491Z,65.17
2022-10-31T12:29:05.930Z,64.30
2022-10-31T12:31:44.256Z,65.28
2022-10-31T12:34:49.178Z,66.22
2022-10-31T12:37:49.992Z,71.10
2022-10-31T12:40:43.366Z,67.78
2022-10-31T12:43:38.401Z,66.40
2022-10-31T12:46:27.060Z,63.98
2022-10-31T12:49:25.329Z,72.00
2022-10-31T12:51:57.739Z,77.67
2022-10-31T12:54:51.482Z,74.27
2022-10-31T12:57:38.946Z,71.07
2022-10-31T13:00:19.342Z,68.47
2022-10-31T13:02:56.560Z,69.12
2022-10-31T13:05:37.542Z,69.65
2022-10-31T13:08:12.889Z,63.25
2022-10-31T13:10:50.442Z,64.75
2022-10-31T13:13:28.698Z,63.70
2022-10-31T13:16:04.056Z,66.62
2022-10-31T13:18:39.100Z,68.62
2022-10-31T13:21:10.748Z,62.60
2022-10-31T13:23:51.040Z,61.37
2022-10-31T13:28:51.402Z,65.35
2022-10-31T13:31:21.158Z,65.12
2022-10-31T13:33:55.494Z,62.27
2022-10-31T13:36:37.359Z,67.95
2022-10-31T13:39:26.486Z,63.50
2022-10-31T13:41:59.284Z,59.60
2022-10-31T13:44:37.398Z,64.77
2022-10-31T13:47:02.868Z,72.40
2022-10-31T13:49:35.493Z,66.60
2022-10-31T13:54:46.722Z,65.80
2022-10-31T13:57:21.580Z,61.63
2022-10-31T14:00:06.292Z,61.55
2022-10-31T14:02:38.335Z,69.07
2022-10-31T14:05:22.848Z,70.22
2022-10-31T14:07:53.288Z,65.15
2022-10-31T14:10:34.689Z,67.70
2022-10-31T14:13:19.418Z,66.25
2022-10-31T14:16:01.022Z,76.65
2022-10-31T14:18:35.645Z,70.95
2022-10-31T14:21:26.313Z,64.87
2022-10-31T14:23:56.103Z,67.87
2022-10-31T14:26:32.016Z,69.87
2022-10-31T14:29:04.290Z,72.03
2022-10-31T14:31:41.575Z,69.62
2022-10-31T14:34:20.373Z,61.80
2022-10-31T14:37:08.887Z,66.77
2022-10-31T14:39:44.666Z,70.47
2022-10-31T14:42:26.033Z,68.42
2022-10-31T14:45:01.590Z,68.22
2022-10-31T14:47:36.615Z,62.85
2022-10-31T14:50:27.967Z,71.42
2022-10-31T14:52:59.592Z,66.70
2022-10-31T14:55:29.152Z,67.17
2022-10-31T14:58:01.792Z,61.58
2022-10-31T15:03:05.905Z,63.17
2022-10-31T15:05:37.313Z,61.23
2022-10-31T15:08:09.280Z,65.90
2022-10-31T15:10:40.561Z,63.45
2022-10-31T15:13:18.516Z,58.78
2022-10-31T15:15:52.176Z,62.20
2022-10-31T15:18:22.617Z,59.67
2022-10-31T15:23:34.160Z,59.93
2022-10-31T15:26:06.118Z,60.28
2022-10-31T15:28:35.704Z,62.88
2022-10-31T15:31:05.289Z,58.10
2022-10-31T15:33:47.961Z,61.05
2022-10-31T15:36:29.258Z,56.10
2022-10-31T15:38:59.155Z,54.38
2022-10-31T15:41:41.149Z,51.40
2022-10-31T15:44:16.136Z,51.10
2022-10-31T15:46:45.734Z,48.10
2022-10-31T15:49:20.833Z,53.05
2022-10-31T15:51:54.124Z,40.38
2022-10-31T15:54:21.684Z,43.98
2022-10-31T15:56:51.337Z,45.10
2022-10-31T15:59:25.563Z,42.90
2022-10-31T16:02:03.448Z,38.90
2022-10-31T16:04:32.934Z,45.40
2022-10-31T16:07:04.572Z,38.58
2022-10-31T16:09:33.861Z,44.67
2022-10-31T16:12:03.149Z,43.55
2022-10-31T16:14:34.796Z,45.88
2022-10-31T16:17:04.080Z,41.95
2022-10-31T16:19:38.424Z,41.85
2022-10-31T16:22:13.260Z,44.20
2022-10-31T16:24:47.395Z,44.27
2022-10-31T16:27:26.648Z,46.18
2022-10-31T16:29:57.295Z,44.23
2022-10-31T16:32:38.851Z,45.92
2022-10-31T16:35:14.442Z,46.85
2022-10-31T16:37:44.015Z,43.73
2022-10-31T16:40:14.512Z,43.65
2022-10-31T16:42:44.514Z,48.30
2022-10-31T16:45:25.785Z,47.75
2022-10-31T16:47:55.025Z,41.88
2022-10-31T16:50:27.081Z,38.70
2022-10-31T16:55:27.671Z,50.75
2022-10-31T16:57:58.396Z,45.10
2022-10-31T17:00:29.336Z,43.52
2022-10-31T17:02:59.082Z,42.43
2022-10-31T17:05:30.358Z,43.45
2022-10-31T17:08:00.767Z,43.17
2022-10-31T17:10:30.488Z,45.85
2022-10-31T17:13:00.356Z,48.68
2022-10-31T17:15:30.808Z,49.20
2022-10-31T17:18:00.751Z,51.02
2022-10-31T17:20:31.905Z,49.85
2022-10-31T17:23:01.734Z,46.30
2022-10-31T17:25:32.232Z,48.10
2022-10-31T17:28:01.618Z,48.42
2022-10-31T17:30:31.370Z,45.85
2022-10-31T17:33:01.314Z,46.42
2022-10-31T17:35:30.988Z,50.48
2022-10-31T17:38:00.528Z,47.58
2022-10-31T17:40:29.901Z,44.85
2022-10-31T17:42:59.966Z,47.55
2022-10-31T17:45:29.525Z,49.27
2022-10-31T17:47:58.846Z,47.25
2022-10-31T17:50:28.849Z,44.38
2022-10-31T17:52:59.853Z,44.15
2022-10-31T17:55:34.384Z,44.38
2022-10-31T17:58:00.687Z,46.90
2022-10-31T18:00:29.908Z,51.30
2022-10-31T18:02:59.833Z,45.55
2022-10-31T18:05:29.421Z,44.50
2022-10-31T18:08:03.817Z,48.05
2022-10-31T18:10:31.043Z,44.30
2022-10-31T18:13:00.811Z,42.93
2022-10-31T18:15:30.415Z,46.30
2022-10-31T18:18:00.181Z,39.80
2022-10-31T18:20:29.815Z,40.45
2022-10-31T18:22:59.078Z,39.70
2022-10-31T18:25:28.592Z,37.05
2022-10-31T18:27:58.993Z,42.25
2022-10-31T18:30:28.682Z,41.00
2022-10-31T18:32:57.972Z,39.35
2022-10-31T18:35:27.208Z,51.33
2022-10-31T18:37:59.278Z,40.67
2022-10-31T18:40:27.519Z,37.00
2022-10-31T18:42:56.798Z,38.75
2022-10-31T18:45:45.963Z,32.08
2022-10-31T18:47:57.541Z,29.30
2022-10-31T18:50:27.107Z,34.43
2022-10-31T18:52:56.511Z,29.50
2022-10-31T18:55:25.911Z,33.73
2022-10-31T18:57:55.258Z,32.70
2022-10-31T19:00:24.659Z,31.05
2022-10-31T19:02:56.480Z,33.73
2022-10-31T19:05:24.961Z,27.50
2022-10-31T19:07:54.338Z,27.20
2022-10-31T19:10:23.661Z,27.95
2022-10-31T19:12:53.196Z,27.67
2022-10-31T19:15:22.477Z,27.50
2022-10-31T19:17:52.022Z,34.10
2022-10-31T19:20:21.374Z,29.95
2022-10-31T19:22:50.972Z,29.45
2022-10-31T19:25:20.407Z,27.93
2022-10-31T19:27:50.196Z,27.25
2022-10-31T19:30:21.381Z,28.83
2022-10-31T19:32:52.440Z,30.75
2022-10-31T19:35:21.838Z,32.42
2022-10-31T19:37:51.179Z,26.10
2022-10-31T19:40:20.994Z,28.25
2022-10-31T19:46:01.384Z,24.85
2022-10-31T19:48:31.469Z,29.42
2022-10-31T19:51:04.979Z,25.27
2022-10-31T19:53:34.898Z,24.30
2022-10-31T19:56:04.622Z,26.85
2022-10-31T19:58:34.322Z,25.52
2022-10-31T20:01:11.634Z,24.00
2022-10-31T20:03:42.591Z,21.70
2022-10-31T20:06:26.729Z,36.08
2022-10-31T20:08:57.473Z,22.13
2022-10-31T20:11:28.549Z,20.48
2022-10-31T20:13:59.148Z,26.57
2022-10-31T20:16:29.320Z,22.95
2022-10-31T20:18:59.822Z,24.43
2022-10-31T20:21:31.039Z,24.20
2022-10-31T20:24:02.084Z,22.67
2022-10-31T20:26:32.900Z,23.77
2022-10-31T20:29:03.335Z,27.80
2022-10-31T20:31:35.377Z,26.27
2022-10-31T20:34:05.036Z,23.42
2022-10-31T20:36:34.711Z,22.62
2022-10-31T20:39:04.795Z,23.77
2022-10-31T20:41:35.894Z,22.40
2022-10-31T20:44:05.353Z,21.40
2022-10-31T20:46:34.773Z,20.97
2022-10-31T20:49:04.261Z,22.42
2022-10-31T20:51:33.742Z,22.22
2022-10-31T20:54:03.163Z,21.68
2022-10-31T20:56:32.453Z,23.67
2022-10-31T20:59:01.854Z,23.75
2022-10-31T21:01:33.658Z,21.70
2022-10-31T21:04:04.965Z,22.05
2022-10-31T21:06:34.419Z,26.42
2022-10-31T21:09:03.943Z,29.90
2022-10-31T21:11:34.937Z,25.25
2022-10-31T21:14:04.630Z,23.38
2022-10-31T21:16:36.336Z,26.40
2022-10-31T21:19:06.297Z,24.37
2022-10-31T21:21:37.136Z,24.72
2022-10-31T21:24:09.488Z,22.65
2022-10-31T21:26:41.672Z,24.07
2022-10-31T21:29:11.903Z,24.52
2022-10-31T21:31:41.661Z,22.02
2022-10-31T21:34:11.462Z,25.45
2022-10-31T21:36:40.759Z,29.10
2022-10-31T21:39:11.659Z,26.05
2022-10-31T21:41:40.948Z,26.57
2022-10-31T21:44:10.262Z,22.70
2022-10-31T21:46:40.025Z,20.10
2022-10-31T21:49:11.149Z,20.77
2022-10-31T21:51:42.381Z,22.77
2022-10-31T21:54:30.006Z,19.92
2022-10-31T21:57:00.675Z,23.62
2022-10-31T21:59:30.584Z,23.65
2022-10-31T22:02:01.062Z,17.67
2022-10-31T22:04:30.391Z,14.98
2022-10-31T22:06:59.981Z,18.35
2022-10-31T22:09:29.294Z,19.40
2022-10-31T22:11:59.814Z,19.67
2022-10-31T22:14:29.236Z,20.70
2022-10-31T22:16:58.525Z,21.48
2022-10-31T22:19:27.784Z,24.43
2022-10-31T22:21:57.348Z,22.82
2022-10-31T22:24:26.570Z,22.42
2022-10-31T22:26:55.796Z,19.00
2022-10-31T22:29:26.679Z,21.52
2022-10-31T22:31:59.522Z,19.05
2022-10-31T22:34:27.109Z,25.10
2022-10-31T22:36:56.685Z,18.48
2022-10-31T22:39:26.101Z,23.55
2022-10-31T22:41:55.319Z,21.45
2022-10-31T22:44:24.726Z,22.90
2022-10-31T22:46:54.017Z,23.57
2022-10-31T22:49:23.489Z,20.30
2022-10-31T22:51:52.819Z,18.70
2022-10-31T22:54:22.205Z,24.92
2022-10-31T22:56:51.443Z,19.75
2022-10-31T22:59:20.767Z,20.95
2022-10-31T23:01:50.164Z,24.57
2022-10-31T23:04:19.625Z,27.17
2022-10-31T23:06:49.129Z,20.90
2022-10-31T23:09:18.741Z,21.87
2022-10-31T23:11:47.962Z,19.62
2022-10-31T23:14:21.000Z,21.20
2022-10-31T23:16:56.023Z,23.07
2022-10-31T23:19:30.413Z,21.77
2022-10-31T23:22:03.947Z,20.55
2022-10-31T23:24:38.605Z,24.65
2022-10-31T23:27:23.037Z,24.52
2022-10-31T23:29:54.481Z,20.20
2022-10-31T23:32:33.727Z,22.85
2022-10-31T23:35:05.858Z,20.12
2022-10-31T23:37:37.095Z,20.37
2022-10-31T23:40:08.535Z,21.00
2022-10-31T23:42:37.949Z,22.25
2022-10-31T23:45:08.131Z,23.02
2022-10-31T23:47:42.429Z,22.75
2022-10-31T23:50:09.440Z,21.50
2022-10-31T23:52:38.798Z,20.72
2022-10-31T23:55:08.715Z,21.07
2022-10-31T23:57:37.952Z,21.93
